createdAt,value
2023-03-28T00:00:19.465Z,-2.44
2023-03-28T00:03:06.384Z,-2.49
2023-03-28T00:05:40.201Z,-2.49
2023-03-28T00:08:27.360Z,-2.52
2023-03-28T00:11:20.226Z,-2.55
2023-03-28T00:14:08.481Z,-2.55
2023-03-28T00:16:53.375Z,-2.58
2023-03-28T00:19:47.353Z,-2.61
2023-03-28T00:22:37.393Z,-2.62
2023-03-28T00:25:21.371Z,-2.65
2023-03-28T00:28:09.426Z,-2.68
2023-03-28T00:30:49.389Z,-2.69
2023-03-28T00:33:43.358Z,-2.73
2023-03-28T00:36:39.379Z,-2.70
2023-03-28T00:39:26.362Z,-2.71
2023-03-28T00:42:01.571Z,-2.73
2023-03-28T00:44:51.405Z,-2.77
2023-03-28T00:47:47.438Z,-2.78
2023-03-28T00:50:48.377Z,-2.82
2023-03-28T00:53:35.467Z,-2.79
2023-03-28T00:56:20.350Z,-2.80
2023-03-28T00:59:19.416Z,-2.85
2023-03-28T01:02:06.445Z,-2.86
2023-03-28T01:04:53.376Z,-2.90
2023-03-28T01:07:47.369Z,-2.95
2023-03-28T01:10:20.612Z,-2.98
2023-03-28T01:13:09.454Z,-2.98
2023-03-28T01:15:42.672Z,-3.04
2023-03-28T01:18:30.370Z,-3.04
2023-03-28T01:21:28.096Z,-3.07
2023-03-28T01:24:39.454Z,-3.07
2023-03-28T01:27:29.532Z,-3.13
2023-03-28T01:30:43.454Z,-3.13
2023-03-28T01:33:36.121Z,-3.17
2023-03-28T01:36:59.403Z,-3.18
2023-03-28T01:40:21.254Z,-3.22
2023-03-28T01:43:20.407Z,-3.24
2023-03-28T01:46:19.439Z,-3.23
2023-03-28T01:49:25.390Z,-3.26
2023-03-28T01:52:29.362Z,-3.30
2023-03-28T01:55:17.201Z,-3.33
2023-03-28T01:58:49.384Z,-3.37
2023-03-28T02:01:43.430Z,-3.41
2023-03-28T02:04:22.497Z,-3.45
2023-03-28T02:07:10.378Z,-3.46
2023-03-28T02:09:51.396Z,-3.47
2023-03-28T02:12:50.388Z,-3.47
2023-03-28T02:15:39.418Z,-3.48
2023-03-28T02:18:21.567Z,-3.48
2023-03-28T02:21:13.389Z,-3.49
2023-03-28T02:23:50.508Z,-3.51
2023-03-28T02:26:38.391Z,-3.55
2023-03-28T02:29:12.848Z,-3.55
2023-03-28T02:31:59.444Z,-3.59
2023-03-28T02:34:32.599Z,-3.58
2023-03-28T02:37:32.435Z,-3.57
2023-03-28T02:40:17.497Z,-3.57
2023-03-28T02:43:13.489Z,-3.61
2023-03-28T02:46:07.631Z,-3.63
2023-03-28T02:49:00.477Z,-3.62
2023-03-28T02:52:41.430Z,-3.65
2023-03-28T02:55:44.424Z,-3.66
2023-03-28T02:58:40.412Z,-3.63
2023-03-28T03:01:14.732Z,-3.64
2023-03-28T03:04:02.458Z,-3.67
2023-03-28T03:06:43.399Z,-3.66
2023-03-28T03:09:30.426Z,-3.67
2023-03-28T03:12:10.393Z,-3.71
2023-03-28T03:15:07.455Z,-3.70
2023-03-28T03:17:54.516Z,-3.71
2023-03-28T03:20:27.544Z,-3.69
2023-03-28T03:23:14.428Z,-3.68
2023-03-28T03:25:50.641Z,-3.70
2023-03-28T03:28:38.425Z,-3.72
2023-03-28T03:31:18.442Z,-3.72
2023-03-28T03:34:12.473Z,-3.76
2023-03-28T03:37:02.478Z,-3.81
2023-03-28T03:39:42.427Z,-3.81
2023-03-28T03:42:29.416Z,-3.79
2023-03-28T03:45:09.493Z,-3.80
2023-03-28T03:48:03.482Z,-3.80
2023-03-28T03:50:50.415Z,-3.78
2023-03-28T03:53:23.517Z,-3.76
2023-03-28T03:56:11.475Z,-3.75
2023-03-28T03:58:51.403Z,-3.73
2023-03-28T04:01:46.489Z,-3.70
2023-03-28T04:04:40.497Z,-3.68
2023-03-28T04:07:27.445Z,-3.68
2023-03-28T04:10:00.671Z,-3.64
2023-03-28T04:12:47.436Z,-3.62
2023-03-28T04:15:20.664Z,-3.65
2023-03-28T04:18:09.524Z,-3.64
2023-03-28T04:20:43.699Z,-3.63
2023-03-28T04:23:50.429Z,-3.63
2023-03-28T04:26:44.420Z,-3.62
2023-03-28T04:29:37.448Z,-3.59
2023-03-28T04:32:12.931Z,-3.59
2023-03-28T04:35:07.438Z,-3.60
2023-03-28T04:37:55.450Z,-3.58
2023-03-28T04:40:29.392Z,-3.57
2023-03-28T04:43:16.433Z,-3.55
2023-03-28T04:45:49.594Z,-3.50
2023-03-28T04:48:36.458Z,-3.44
2023-03-28T04:51:10.678Z,-3.40
2023-03-28T04:53:57.449Z,-3.34
2023-03-28T04:56:30.525Z,-3.30
2023-03-28T04:59:18.468Z,-3.23
2023-03-28T05:01:52.735Z,-3.16
2023-03-28T05:04:39.522Z,-3.11
2023-03-28T05:07:13.540Z,-3.04
2023-03-28T05:10:00.482Z,-3.00
2023-03-28T05:12:40.477Z,-2.95
2023-03-28T05:15:27.438Z,-2.91
2023-03-28T05:18:00.792Z,-2.87
2023-03-28T05:20:47.444Z,-2.88
2023-03-28T05:23:27.453Z,-2.88
2023-03-28T05:26:14.446Z,-2.84
2023-03-28T05:28:47.589Z,-2.81
2023-03-28T05:31:37.488Z,-2.61
2023-03-28T05:34:10.763Z,-2.47
2023-03-28T05:36:57.483Z,-2.27
2023-03-28T05:39:30.533Z,-2.21
2023-03-28T05:42:17.439Z,-2.26
2023-03-28T05:44:50.638Z,-2.27
2023-03-28T05:47:37.479Z,-2.27
2023-03-28T05:50:18.464Z,-2.31
2023-03-28T05:53:12.479Z,-2.29
2023-03-28T05:55:59.479Z,-2.28
2023-03-28T05:58:32.640Z,-2.20
2023-03-28T06:01:19.452Z,-2.20
2023-03-28T06:03:52.649Z,-2.14
2023-03-28T06:06:42.517Z,-1.95
2023-03-28T06:09:15.697Z,-1.81
2023-03-28T06:12:02.465Z,-1.68
2023-03-28T06:14:36.546Z,-1.52
2023-03-28T06:17:23.462Z,-1.47
2023-03-28T06:19:56.787Z,-1.46
2023-03-28T06:22:44.517Z,-1.38
2023-03-28T06:25:17.592Z,-1.17
2023-03-28T06:28:04.496Z,-1.07
2023-03-28T06:30:39.989Z,-0.95
2023-03-28T06:33:26.455Z,-0.90
2023-03-28T06:35:59.713Z,-0.85
2023-03-28T06:38:46.553Z,-0.82
2023-03-28T06:41:19.674Z,-0.85
2023-03-28T06:44:06.496Z,-0.91
2023-03-28T06:46:39.747Z,-0.85
2023-03-28T06:49:26.523Z,-0.85
2023-03-28T06:51:59.550Z,-0.86
2023-03-28T06:54:48.481Z,-0.86
2023-03-28T06:57:22.692Z,-0.84
2023-03-28T07:00:10.586Z,-0.81
2023-03-28T07:02:50.578Z,-0.80
2023-03-28T07:05:37.502Z,-0.77
2023-03-28T07:08:17.537Z,-0.68
2023-03-28T07:11:11.478Z,-0.61
2023-03-28T07:14:05.499Z,-0.61
2023-03-28T07:16:52.574Z,-0.63
2023-03-28T07:19:25.581Z,-0.50
2023-03-28T07:22:12.500Z,-0.26
2023-03-28T07:24:45.661Z,-0.14
2023-03-28T07:27:32.507Z,-0.07
2023-03-28T07:30:12.492Z,-0.02
2023-03-28T07:33:14.135Z,0.05
2023-03-28T07:35:57.559Z,0.25
2023-03-28T07:38:46.536Z,0.25
2023-03-28T07:41:24.501Z,0.12
2023-03-28T07:44:11.514Z,-0.05
2023-03-28T07:46:44.590Z,-0.13
2023-03-28T07:49:31.504Z,-0.30
2023-03-28T07:52:05.920Z,-0.34
2023-03-28T07:54:55.499Z,-0.28
2023-03-28T07:57:28.588Z,-0.42
2023-03-28T08:00:19.620Z,-0.43
2023-03-28T08:02:52.735Z,-0.32
2023-03-28T08:05:44.554Z,-0.47
2023-03-28T08:08:24.517Z,-0.51
2023-03-28T08:11:18.523Z,-0.58
2023-03-28T08:14:12.512Z,-0.51
2023-03-28T08:17:06.559Z,-0.32
2023-03-28T08:20:00.552Z,-0.28
2023-03-28T08:22:47.517Z,-0.12
2023-03-28T08:25:20.842Z,0.03
2023-03-28T08:28:07.570Z,0.02
2023-03-28T08:30:41.696Z,-0.27
2023-03-28T08:33:28.536Z,-0.11
2023-03-28T08:36:02.686Z,0.14
2023-03-28T08:38:53.583Z,0.48
2023-03-28T08:42:12.525Z,1.07
2023-03-28T08:45:17.534Z,1.65
2023-03-28T08:48:11.794Z,2.46
2023-03-28T08:51:16.511Z,3.29
2023-03-28T08:54:00.883Z,3.84
2023-03-28T08:56:52.595Z,4.01
2023-03-28T08:59:29.683Z,3.92
2023-03-28T09:02:26.630Z,4.26
2023-03-28T09:05:17.749Z,4.44
2023-03-28T09:08:32.644Z,4.74
2023-03-28T09:11:11.721Z,4.68
2023-03-28T09:14:17.522Z,4.06
2023-03-28T09:17:12.644Z,3.62
2023-03-28T09:19:59.609Z,2.88
2023-03-28T09:22:47.021Z,2.95
2023-03-28T09:25:42.534Z,3.05
2023-03-28T09:28:37.538Z,3.19
2023-03-28T09:31:27.671Z,2.92
2023-03-28T09:34:09.525Z,2.48
2023-03-28T09:37:07.506Z,2.11
2023-03-28T09:40:00.529Z,1.89
2023-03-28T09:43:11.695Z,1.78
2023-03-28T09:46:09.615Z,1.95
2023-03-28T09:48:51.686Z,2.28
2023-03-28T09:51:45.572Z,1.74
2023-03-28T09:54:36.539Z,1.27
2023-03-28T09:57:11.743Z,0.91
2023-03-28T09:59:58.576Z,0.77
2023-03-28T10:02:33.772Z,0.74
2023-03-28T10:05:47.605Z,0.60
2023-03-28T10:08:46.530Z,0.37
2023-03-28T10:11:33.646Z,0.37
2023-03-28T10:14:06.923Z,0.33
2023-03-28T10:16:54.659Z,0.39
2023-03-28T10:19:33.374Z,0.50
2023-03-28T10:22:45.545Z,0.70
2023-03-28T10:25:35.542Z,0.85
2023-03-28T10:28:40.546Z,0.75
2023-03-28T10:31:38.594Z,0.66
2023-03-28T10:34:43.555Z,0.39
2023-03-28T10:37:35.585Z,0.26
2023-03-28T10:40:30.149Z,0.41
2023-03-28T10:43:20.575Z,0.76
2023-03-28T10:45:54.698Z,0.91
2023-03-28T10:48:43.588Z,1.20
2023-03-28T10:51:24.750Z,1.52
2023-03-28T10:54:33.563Z,1.59
2023-03-28T10:57:13.858Z,1.03
2023-03-28T11:00:16.580Z,1.22
2023-03-28T11:03:02.910Z,1.33
2023-03-28T11:06:08.536Z,0.90
2023-03-28T11:09:11.605Z,0.98
2023-03-28T11:12:28.002Z,1.21
2023-03-28T11:15:05.837Z,0.91
2023-03-28T11:18:32.579Z,0.63
2023-03-28T11:21:31.567Z,0.49
2023-03-28T11:24:44.573Z,0.37
2023-03-28T11:27:39.567Z,0.38
2023-03-28T11:30:39.576Z,0.16
2023-03-28T11:33:32.655Z,0.15
2023-03-28T11:36:35.629Z,0.17
2023-03-28T11:39:41.567Z,0.38
2023-03-28T11:42:24.851Z,0.91
2023-03-28T11:45:33.931Z,1.21
2023-03-28T11:48:33.593Z,1.16
2023-03-28T11:51:49.586Z,1.31
2023-03-28T11:54:51.593Z,1.18
2023-03-28T11:57:25.123Z,1.33
2023-03-28T12:00:32.154Z,1.50
2023-03-28T12:03:22.113Z,1.27
2023-03-28T12:06:11.557Z,1.08
2023-03-28T12:08:59.732Z,1.32
2023-03-28T12:11:54.578Z,1.40
2023-03-28T12:14:33.741Z,1.31
2023-03-28T12:17:46.639Z,1.47
2023-03-28T12:20:56.140Z,1.10
2023-03-28T12:24:04.579Z,1.07
2023-03-28T12:27:19.594Z,0.90
2023-03-28T12:30:33.589Z,0.53
2023-03-28T12:33:22.838Z,0.29
2023-03-28T12:36:36.601Z,0.21
2023-03-28T12:39:41.597Z,0.17
2023-03-28T12:42:20.754Z,0.19
2023-03-28T12:45:13.605Z,0.48
2023-03-28T12:47:55.883Z,0.41
2023-03-28T12:51:17.607Z,0.31
2023-03-28T12:53:53.724Z,0.48
2023-03-28T12:56:41.687Z,0.62
2023-03-28T12:59:49.616Z,0.65
2023-03-28T13:03:06.639Z,0.51
2023-03-28T13:06:31.606Z,0.39
2023-03-28T13:09:32.685Z,0.27
2023-03-28T13:12:37.623Z,0.26
2023-03-28T13:15:27.968Z,0.23
2023-03-28T13:18:26.282Z,0.12
2023-03-28T13:21:13.606Z,0.14
2023-03-28T13:23:54.765Z,0.16
2023-03-28T13:27:03.616Z,0.34
2023-03-28T13:30:00.671Z,0.53
2023-03-28T13:33:18.662Z,0.82
2023-03-28T13:36:12.688Z,0.75
2023-03-28T13:39:18.673Z,0.41
2023-03-28T13:42:06.660Z,0.16
2023-03-28T13:44:48.763Z,0.09
2023-03-28T13:47:46.691Z,0.02
2023-03-28T13:50:32.799Z,-0.02
2023-03-28T13:53:19.633Z,-0.11
2023-03-28T13:55:52.770Z,-0.13
2023-03-28T13:58:39.645Z,-0.14
2023-03-28T14:01:15.297Z,-0.18
2023-03-28T14:04:02.694Z,-0.26
2023-03-28T14:06:43.625Z,-0.33
2023-03-28T14:09:34.678Z,-0.34
2023-03-28T14:12:27.744Z,-0.31
2023-03-28T14:15:16.695Z,-0.34
2023-03-28T14:17:57.742Z,-0.32
2023-03-28T14:20:51.623Z,-0.25
2023-03-28T14:23:51.697Z,-0.18
2023-03-28T14:26:41.673Z,-0.09
2023-03-28T14:29:26.666Z,-0.06
2023-03-28T14:32:50.678Z,-0.02
2023-03-28T14:35:52.708Z,0.07
2023-03-28T14:38:51.675Z,0.09
2023-03-28T14:41:49.641Z,0.11
2023-03-28T14:44:38.667Z,0.03
2023-03-28T14:47:12.760Z,-0.06
2023-03-28T14:50:00.689Z,-0.08
2023-03-28T14:52:41.088Z,-0.12
2023-03-28T14:55:32.669Z,-0.13
2023-03-28T14:58:14.668Z,-0.09
2023-03-28T15:01:12.711Z,0.09
2023-03-28T15:04:04.689Z,-0.08
2023-03-28T15:06:40.769Z,-0.20
2023-03-28T15:09:39.702Z,-0.27
2023-03-28T15:12:15.232Z,-0.33
2023-03-28T15:15:01.695Z,-0.40
2023-03-28T15:17:41.741Z,-0.45
2023-03-28T15:20:34.674Z,-0.55
2023-03-28T15:23:11.797Z,-0.61
2023-03-28T15:25:59.699Z,-0.66
2023-03-28T15:28:35.161Z,-0.73
2023-03-28T15:31:23.765Z,-0.82
2023-03-28T15:33:58.758Z,-0.96
2023-03-28T15:37:02.672Z,-0.98
2023-03-28T15:39:57.691Z,-1.03
2023-03-28T15:42:44.678Z,-1.21
2023-03-28T15:45:27.126Z,-1.30
2023-03-28T15:48:21.688Z,-1.38
2023-03-28T15:51:04.667Z,-1.42
2023-03-28T15:54:00.665Z,-1.49
2023-03-28T15:56:52.771Z,-1.44
2023-03-28T15:59:36.076Z,-1.61
2023-03-28T16:02:31.786Z,-1.69
2023-03-28T16:05:11.015Z,-1.68
2023-03-28T16:07:57.759Z,-1.74
2023-03-28T16:10:38.683Z,-1.72
2023-03-28T16:13:32.678Z,-1.76
2023-03-28T16:16:39.828Z,-1.83
2023-03-28T16:19:34.056Z,-1.90
2023-03-28T16:22:14.704Z,-1.89
2023-03-28T16:25:08.714Z,-1.90
2023-03-28T16:28:02.719Z,-1.97
2023-03-28T16:30:47.730Z,-2.03
2023-03-28T16:33:27.701Z,-2.00
2023-03-28T16:36:08.932Z,-2.02
2023-03-28T16:39:02.668Z,-2.11
2023-03-28T16:41:49.702Z,-2.20
2023-03-28T16:44:29.698Z,-2.13
2023-03-28T16:47:23.780Z,-2.07
2023-03-28T16:50:11.698Z,-2.10
2023-03-28T16:52:45.783Z,-2.13
2023-03-28T16:55:32.688Z,-2.12
2023-03-28T16:58:05.822Z,-2.07
2023-03-28T17:00:52.802Z,-2.04
2023-03-28T17:03:25.923Z,-1.99
2023-03-28T17:06:16.723Z,-1.99
2023-03-28T17:08:53.234Z,-1.98
2023-03-28T17:11:39.691Z,-1.98
2023-03-28T17:14:12.847Z,-2.02
2023-03-28T17:16:59.725Z,-2.00
2023-03-28T17:19:39.743Z,-2.03
2023-03-28T17:22:27.747Z,-2.02
2023-03-28T17:25:08.707Z,-2.07
2023-03-28T17:27:55.767Z,-2.09
2023-03-28T17:30:35.798Z,-2.13
2023-03-28T17:33:30.701Z,-2.12
2023-03-28T17:36:42.411Z,-2.22
2023-03-28T17:39:35.757Z,-2.33
2023-03-28T17:42:29.773Z,-2.37
2023-03-28T17:45:17.673Z,-2.41
2023-03-28T17:47:57.783Z,-2.40
2023-03-28T17:50:45.749Z,-2.41
2023-03-28T17:53:25.742Z,-2.42
2023-03-28T17:56:13.778Z,-2.46
2023-03-28T17:58:46.993Z,-2.47
2023-03-28T18:01:33.835Z,-2.45
2023-03-28T18:04:06.990Z,-2.42
2023-03-28T18:06:53.750Z,-2.50
2023-03-28T18:09:28.519Z,-2.57
2023-03-28T18:12:15.756Z,-2.57
2023-03-28T18:14:49.223Z,-2.62
2023-03-28T18:17:35.777Z,-2.62
2023-03-28T18:20:08.894Z,-2.64
2023-03-28T18:22:55.746Z,-2.76
2023-03-28T18:25:32.883Z,-2.77
2023-03-28T18:28:19.768Z,-2.78
2023-03-28T18:30:52.892Z,-2.78
2023-03-28T18:33:39.774Z,-2.83
2023-03-28T18:36:20.831Z,-2.80
2023-03-28T18:39:14.704Z,-2.79
2023-03-28T18:42:01.757Z,-2.80
2023-03-28T18:44:37.045Z,-2.84
2023-03-28T18:47:25.030Z,-2.82
2023-03-28T18:50:07.749Z,-2.82
2023-03-28T18:53:02.119Z,-2.87
2023-03-28T18:55:55.767Z,-2.82
2023-03-28T18:58:50.828Z,-2.96
2023-03-28T19:01:39.023Z,-3.10
2023-03-28T19:04:19.959Z,-3.11
2023-03-28T19:07:06.773Z,-3.18
2023-03-28T19:09:46.807Z,-3.23
2023-03-28T19:12:40.781Z,-3.30
2023-03-28T19:15:29.638Z,-3.36
2023-03-28T19:18:10.826Z,-3.29
2023-03-28T19:21:04.795Z,-3.30
2023-03-28T19:23:53.757Z,-3.32
2023-03-28T19:26:27.362Z,-3.38
2023-03-28T19:29:13.757Z,-3.39
2023-03-28T19:31:46.958Z,-3.44
2023-03-28T19:34:34.775Z,-3.44
2023-03-28T19:37:08.126Z,-3.44
2023-03-28T19:39:54.776Z,-3.41
2023-03-28T19:42:34.773Z,-3.47
2023-03-28T19:45:21.961Z,-3.45
2023-03-28T19:47:55.995Z,-3.41
2023-03-28T19:50:43.892Z,-3.42
2023-03-28T19:53:24.816Z,-3.43
2023-03-28T19:56:13.862Z,-3.39
2023-03-28T19:58:46.915Z,-3.38
2023-03-28T20:01:33.900Z,-3.48
2023-03-28T20:04:06.915Z,-3.55
2023-03-28T20:06:56.816Z,-3.50
2023-03-28T20:09:29.917Z,-3.57
2023-03-28T20:12:16.773Z,-3.53
2023-03-28T20:14:57.775Z,-3.53
2023-03-28T20:17:52.859Z,-3.49
2023-03-28T20:20:39.773Z,-3.47
2023-03-28T20:23:20.831Z,-3.52
2023-03-28T20:26:14.806Z,-3.49
2023-03-28T20:29:05.891Z,-3.50
2023-03-28T20:31:38.935Z,-3.49
2023-03-28T20:34:25.771Z,-3.47
2023-03-28T20:37:05.834Z,-3.53
2023-03-28T20:39:59.753Z,-3.54
2023-03-28T20:42:47.879Z,-3.53
2023-03-28T20:45:30.791Z,-3.52
2023-03-28T20:48:26.521Z,-3.50
2023-03-28T20:51:20.776Z,-3.55
2023-03-28T20:53:55.881Z,-3.54
2023-03-28T20:56:42.870Z,-3.55
2023-03-28T20:59:15.940Z,-3.56
2023-03-28T21:02:02.778Z,-3.55
2023-03-28T21:04:36.392Z,-3.57
2023-03-28T21:07:22.772Z,-3.59
2023-03-28T21:09:56.042Z,-3.57
2023-03-28T21:12:42.797Z,-3.58
2023-03-28T21:15:28.920Z,-3.55
2023-03-28T21:18:22.781Z,-3.55
2023-03-28T21:21:17.868Z,-3.53
2023-03-28T21:24:11.884Z,-3.55
2023-03-28T21:27:05.829Z,-3.58
2023-03-28T21:29:59.843Z,-3.57
2023-03-28T21:32:53.904Z,-3.58
2023-03-28T21:35:41.820Z,-3.52
2023-03-28T21:38:35.956Z,-3.51
2023-03-28T21:41:22.880Z,-3.50
2023-03-28T21:43:57.127Z,-3.52
2023-03-28T21:46:43.828Z,-3.57
2023-03-28T21:49:19.358Z,-3.57
2023-03-28T21:52:05.914Z,-3.51
2023-03-28T21:54:38.883Z,-3.48
2023-03-28T21:57:25.898Z,-3.48
2023-03-28T21:59:58.889Z,-3.43
2023-03-28T22:02:45.868Z,-3.45
2023-03-28T22:05:28.633Z,-3.46
2023-03-28T22:08:18.842Z,-3.49
2023-03-28T22:10:54.915Z,-3.54
2023-03-28T22:13:41.853Z,-3.51
2023-03-28T22:16:16.148Z,-3.55
2023-03-28T22:19:03.821Z,-3.53
2023-03-28T22:21:37.995Z,-3.57
2023-03-28T22:24:24.798Z,-3.54
2023-03-28T22:26:58.018Z,-3.54
2023-03-28T22:29:44.832Z,-3.52
2023-03-28T22:32:17.951Z,-3.49
2023-03-28T22:35:04.882Z,-3.47
2023-03-28T22:37:44.829Z,-3.54
2023-03-28T22:40:31.934Z,-3.53
2023-03-28T22:43:05.913Z,-3.52
2023-03-28T22:45:52.880Z,-3.50
2023-03-28T22:48:30.035Z,-3.48
2023-03-28T22:51:21.831Z,-3.48
2023-03-28T22:53:56.209Z,-3.46
2023-03-28T22:56:42.882Z,-3.50
2023-03-28T22:59:22.836Z,-3.51
2023-03-28T23:02:16.867Z,-3.55
2023-03-28T23:05:11.873Z,-3.56
2023-03-28T23:08:00.832Z,-3.57
2023-03-28T23:10:34.006Z,-3.54
2023-03-28T23:13:20.826Z,-3.54
2023-03-28T23:16:01.937Z,-3.58
2023-03-28T23:18:49.882Z,-3.59
2023-03-28T23:21:24.528Z,-3.58
2023-03-28T23:24:10.831Z,-3.58
2023-03-28T23:26:51.827Z,-3.58
2023-03-28T23:29:38.828Z,-3.55
2023-03-28T23:32:11.935Z,-3.56
2023-03-28T23:34:59.862Z,-3.53
2023-03-28T23:37:40.853Z,-3.56
2023-03-28T23:40:27.850Z,-3.55
2023-03-28T23:43:01.013Z,-3.55
2023-03-28T23:45:47.892Z,-3.56
2023-03-28T23:48:21.124Z,-3.54
2023-03-28T23:51:10.864Z,-3.52
2023-03-28T23:53:50.855Z,-3.54
2023-03-28T23:56:44.941Z,-3.54
2023-03-28T23:59:31.823Z,-3.53
